sensor_id;sensor_type;location;lat;lon;timestamp;temperature;humidity
9446;DHT22;4761;49.490;10.908;2023-05-01T00:02:10;19.00;48.40
9446;DHT22;4761;49.490;10.908;2023-05-01T00:04:35;19.00;48.40
9446;DHT22;4761;49.490;10.908;2023-05-01T00:07:01;19.00;49.00
9446;DHT22;4761;49.490;10.908;2023-05-01T00:09:27;18.90;48.40
9446;DHT22;4761;49.490;10.908;2023-05-01T00:11:52;18.90;48.40
9446;DHT22;4761;49.490;10.908;2023-05-01T00:14:18;18.90;48.40
9446;DHT22;4761;49.490;10.908;2023-05-01T00:16:43;18.90;48.30
9446;DHT22;4761;49.490;10.908;2023-05-01T00:19:11;18.90;48.30
9446;DHT22;4761;49.490;10.908;2023-05-01T00:21:36;18.90;48.40
9446;DHT22;4761;49.490;10.908;2023-05-01T00:24:02;18.90;48.40
9446;DHT22;4761;49.490;10.908;2023-05-01T00:26:28;18.90;48.40
9446;DHT22;4761;49.490;10.908;2023-05-01T00:28:56;18.90;48.30
9446;DHT22;4761;49.490;10.908;2023-05-01T00:31:23;18.90;48.40
9446;DHT22;4761;49.490;10.908;2023-05-01T00:33:50;18.90;48.40
9446;DHT22;4761;49.490;10.908;2023-05-01T00:36:15;18.90;48.40
9446;DHT22;4761;49.490;10.908;2023-05-01T00:38:41;18.90;48.40
9446;DHT22;4761;49.490;10.908;2023-05-01T00:41:06;18.90;48.40
9446;DHT22;4761;49.490;10.908;2023-05-01T00:43:32;18.90;48.40
9446;DHT22;4761;49.490;10.908;2023-05-01T00:45:57;18.90;48.50
9446;DHT22;4761;49.490;10.908;2023-05-01T00:48:23;18.90;48.40
9446;DHT22;4761;49.490;10.908;2023-05-01T00:50:50;18.90;48.40
9446;DHT22;4761;49.490;10.908;2023-05-01T00:53:17;18.90;48.50
9446;DHT22;4761;49.490;10.908;2023-05-01T00:55:44;18.90;48.50
9446;DHT22;4761;49.490;10.908;2023-05-01T00:58:10;18.90;48.40
9446;DHT22;4761;49.490;10.908;2023-05-01T01:00:38;18.90;48.40
9446;DHT22;4761;49.490;10.908;2023-05-01T01:03:04;18.90;48.40
9446;DHT22;4761;49.490;10.908;2023-05-01T01:05:31;18.90;48.40
9446;DHT22;4761;49.490;10.908;2023-05-01T01:08:13;18.90;48.40
9446;DHT22;4761;49.490;10.908;2023-05-01T01:16:20;18.80;48.30
9446;DHT22;4761;49.490;10.908;2023-05-01T01:19:23;18.90;48.40
9446;DHT22;4761;49.490;10.908;2023-05-01T01:21:59;18.80;48.20
9446;DHT22;4761;49.490;10.908;2023-05-01T01:27:33;18.80;48.30
9446;DHT22;4761;49.490;10.908;2023-05-01T01:35:42;18.80;48.20
9446;DHT22;4761;49.490;10.908;2023-05-01T01:38:22;18.80;48.20
9446;DHT22;4761;49.490;10.908;2023-05-01T01:40:58;18.80;48.20
9446;DHT22;4761;49.490;10.908;2023-05-01T01:43:26;18.80;48.20
9446;DHT22;4761;49.490;10.908;2023-05-01T01:46:01;18.80;48.20
9446;DHT22;4761;49.490;10.908;2023-05-01T01:48:35;18.80;48.20
9446;DHT22;4761;49.490;10.908;2023-05-01T01:51:07;18.80;48.10
9446;DHT22;4761;49.490;10.908;2023-05-01T01:53:34;18.80;48.10
9446;DHT22;4761;49.490;10.908;2023-05-01T01:56:03;18.90;48.10
9446;DHT22;4761;49.490;10.908;2023-05-01T01:58:31;18.80;48.00
9446;DHT22;4761;49.490;10.908;2023-05-01T02:00:57;18.90;48.10
9446;DHT22;4761;49.490;10.908;2023-05-01T02:03:24;18.80;48.00
9446;DHT22;4761;49.490;10.908;2023-05-01T02:05:51;18.80;48.00
9446;DHT22;4761;49.490;10.908;2023-05-01T02:08:19;18.80;48.00
9446;DHT22;4761;49.490;10.908;2023-05-01T02:10:47;18.80;48.00
9446;DHT22;4761;49.490;10.908;2023-05-01T02:13:13;18.80;48.00
9446;DHT22;4761;49.490;10.908;2023-05-01T02:15:40;18.80;48.00
9446;DHT22;4761;49.490;10.908;2023-05-01T02:18:06;18.80;48.00
9446;DHT22;4761;49.490;10.908;2023-05-01T02:20:32;18.80;48.00
9446;DHT22;4761;49.490;10.908;2023-05-01T02:22:59;18.80;47.90
9446;DHT22;4761;49.490;10.908;2023-05-01T02:25:26;18.80;48.00
9446;DHT22;4761;49.490;10.908;2023-05-01T02:28:02;18.80;47.90
9446;DHT22;4761;49.490;10.908;2023-05-01T02:30:30;18.80;47.90
9446;DHT22;4761;49.490;10.908;2023-05-01T02:32:56;18.80;47.90
9446;DHT22;4761;49.490;10.908;2023-05-01T02:35:22;18.80;48.00
9446;DHT22;4761;49.490;10.908;2023-05-01T02:37:47;18.80;48.00
9446;DHT22;4761;49.490;10.908;2023-05-01T02:40:13;18.80;48.00
9446;DHT22;4761;49.490;10.908;2023-05-01T02:42:41;18.80;48.00
9446;DHT22;4761;49.490;10.908;2023-05-01T02:45:09;18.80;47.90
9446;DHT22;4761;49.490;10.908;2023-05-01T02:47:43;18.80;47.80
9446;DHT22;4761;49.490;10.908;2023-05-01T02:50:10;18.80;47.80
9446;DHT22;4761;49.490;10.908;2023-05-01T02:52:37;18.80;47.80
9446;DHT22;4761;49.490;10.908;2023-05-01T02:55:03;18.80;47.80
9446;DHT22;4761;49.490;10.908;2023-05-01T02:57:32;18.80;47.80
9446;DHT22;4761;49.490;10.908;2023-05-01T02:59:57;18.80;47.80
9446;DHT22;4761;49.490;10.908;2023-05-01T03:02:23;18.80;47.70
9446;DHT22;4761;49.490;10.908;2023-05-01T03:04:48;18.80;47.70
9446;DHT22;4761;49.490;10.908;2023-05-01T03:07:14;18.70;47.70
9446;DHT22;4761;49.490;10.908;2023-05-01T03:09:39;18.70;47.60
9446;DHT22;4761;49.490;10.908;2023-05-01T03:12:05;18.70;47.60
9446;DHT22;4761;49.490;10.908;2023-05-01T03:14:30;18.70;47.50
9446;DHT22;4761;49.490;10.908;2023-05-01T03:16:56;18.70;47.50
9446;DHT22;4761;49.490;10.908;2023-05-01T03:19:22;18.80;47.40
9446;DHT22;4761;49.490;10.908;2023-05-01T03:21:48;18.70;47.30
9446;DHT22;4761;49.490;10.908;2023-05-01T03:24:13;18.80;47.80
9446;DHT22;4761;49.490;10.908;2023-05-01T03:26:39;18.80;47.20
9446;DHT22;4761;49.490;10.908;2023-05-01T03:29:04;18.80;47.20
9446;DHT22;4761;49.490;10.908;2023-05-01T03:31:30;18.80;47.10
9446;DHT22;4761;49.490;10.908;2023-05-01T03:33:55;18.80;47.00
9446;DHT22;4761;49.490;10.908;2023-05-01T03:36:21;18.70;47.00
9446;DHT22;4761;49.490;10.908;2023-05-01T03:38:47;18.70;46.80
9446;DHT22;4761;49.490;10.908;2023-05-01T03:41:13;18.70;46.90
9446;DHT22;4761;49.490;10.908;2023-05-01T03:43:38;18.70;47.20
9446;DHT22;4761;49.490;10.908;2023-05-01T03:46:04;18.70;46.90
9446;DHT22;4761;49.490;10.908;2023-05-01T03:48:29;18.80;46.80
9446;DHT22;4761;49.490;10.908;2023-05-01T03:50:55;18.70;46.70
9446;DHT22;4761;49.490;10.908;2023-05-01T03:53:22;18.70;46.70
9446;DHT22;4761;49.490;10.908;2023-05-01T03:55:48;18.80;46.80
9446;DHT22;4761;49.490;10.908;2023-05-01T03:58:13;18.70;46.70
9446;DHT22;4761;49.490;10.908;2023-05-01T04:00:39;18.70;46.70
9446;DHT22;4761;49.490;10.908;2023-05-01T04:03:05;18.70;46.60
9446;DHT22;4761;49.490;10.908;2023-05-01T04:05:31;18.70;46.60
9446;DHT22;4761;49.490;10.908;2023-05-01T04:07:57;18.70;46.50
9446;DHT22;4761;49.490;10.908;2023-05-01T04:10:22;18.80;46.60
9446;DHT22;4761;49.490;10.908;2023-05-01T04:12:48;18.70;46.60
9446;DHT22;4761;49.490;10.908;2023-05-01T04:15:13;18.70;46.60
9446;DHT22;4761;49.490;10.908;2023-05-01T04:17:39;18.70;47.20
9446;DHT22;4761;49.490;10.908;2023-05-01T04:20:05;18.70;46.60
9446;DHT22;4761;49.490;10.908;2023-05-01T04:22:32;18.70;46.60
9446;DHT22;4761;49.490;10.908;2023-05-01T04:24:57;18.70;46.70
9446;DHT22;4761;49.490;10.908;2023-05-01T04:27:23;18.70;46.80
9446;DHT22;4761;49.490;10.908;2023-05-01T04:29:49;18.70;46.70
9446;DHT22;4761;49.490;10.908;2023-05-01T04:32:15;18.70;46.90
9446;DHT22;4761;49.490;10.908;2023-05-01T04:34:41;18.70;46.80
9446;DHT22;4761;49.490;10.908;2023-05-01T04:37:08;18.70;47.00
9446;DHT22;4761;49.490;10.908;2023-05-01T04:39:34;18.70;47.00
9446;DHT22;4761;49.490;10.908;2023-05-01T04:42:00;18.70;47.00
9446;DHT22;4761;49.490;10.908;2023-05-01T04:44:26;18.70;47.10
9446;DHT22;4761;49.490;10.908;2023-05-01T04:46:52;18.70;47.10
9446;DHT22;4761;49.490;10.908;2023-05-01T04:49:17;18.70;47.10
9446;DHT22;4761;49.490;10.908;2023-05-01T04:51:43;18.60;47.10
9446;DHT22;4761;49.490;10.908;2023-05-01T04:54:08;18.70;47.20
9446;DHT22;4761;49.490;10.908;2023-05-01T04:56:33;18.60;47.20
9446;DHT22;4761;49.490;10.908;2023-05-01T04:58:59;18.70;47.30
9446;DHT22;4761;49.490;10.908;2023-05-01T05:01:24;18.70;47.30
9446;DHT22;4761;49.490;10.908;2023-05-01T05:03:50;18.70;47.20
9446;DHT22;4761;49.490;10.908;2023-05-01T05:06:15;18.70;47.30
9446;DHT22;4761;49.490;10.908;2023-05-01T05:08:41;18.70;47.40
9446;DHT22;4761;49.490;10.908;2023-05-01T05:11:07;18.70;47.40
9446;DHT22;4761;49.490;10.908;2023-05-01T05:13:32;18.70;47.40
9446;DHT22;4761;49.490;10.908;2023-05-01T05:15:58;18.70;47.40
9446;DHT22;4761;49.490;10.908;2023-05-01T05:18:24;18.70;47.40
9446;DHT22;4761;49.490;10.908;2023-05-01T05:20:49;18.70;47.50
9446;DHT22;4761;49.490;10.908;2023-05-01T05:23:15;18.70;47.40
9446;DHT22;4761;49.490;10.908;2023-05-01T05:25:40;18.70;47.40
9446;DHT22;4761;49.490;10.908;2023-05-01T05:28:06;18.70;47.40
9446;DHT22;4761;49.490;10.908;2023-05-01T05:30:31;18.70;47.40
9446;DHT22;4761;49.490;10.908;2023-05-01T05:32:57;18.70;47.40
9446;DHT22;4761;49.490;10.908;2023-05-01T05:35:22;18.70;47.40
9446;DHT22;4761;49.490;10.908;2023-05-01T05:37:48;18.70;47.30
9446;DHT22;4761;49.490;10.908;2023-05-01T05:40:14;18.70;47.10
9446;DHT22;4761;49.490;10.908;2023-05-01T05:42:40;18.70;47.40
9446;DHT22;4761;49.490;10.908;2023-05-01T05:45:06;18.70;42.80
9446;DHT22;4761;49.490;10.908;2023-05-01T05:47:32;18.50;40.40
9446;DHT22;4761;49.490;10.908;2023-05-01T05:49:57;18.50;39.70
9446;DHT22;4761;49.490;10.908;2023-05-01T05:52:23;18.50;39.30
9446;DHT22;4761;49.490;10.908;2023-05-01T05:54:48;18.50;39.10
9446;DHT22;4761;49.490;10.908;2023-05-01T05:57:14;18.60;38.90
9446;DHT22;4761;49.490;10.908;2023-05-01T05:59:39;18.60;38.80
9446;DHT22;4761;49.490;10.908;2023-05-01T06:02:05;18.70;38.80
9446;DHT22;4761;49.490;10.908;2023-05-01T06:04:31;18.80;38.80
9446;DHT22;4761;49.490;10.908;2023-05-01T06:06:57;18.80;38.80
9446;DHT22;4761;49.490;10.908;2023-05-01T06:09:23;18.90;38.80
9446;DHT22;4761;49.490;10.908;2023-05-01T06:11:49;19.00;38.70
9446;DHT22;4761;49.490;10.908;2023-05-01T06:14:15;19.10;38.60
9446;DHT22;4761;49.490;10.908;2023-05-01T06:16:41;19.10;38.40
9446;DHT22;4761;49.490;10.908;2023-05-01T06:19:07;19.20;38.30
9446;DHT22;4761;49.490;10.908;2023-05-01T06:21:34;19.20;38.20
9446;DHT22;4761;49.490;10.908;2023-05-01T06:24:00;19.30;38.30
9446;DHT22;4761;49.490;10.908;2023-05-01T06:26:25;19.30;38.30
9446;DHT22;4761;49.490;10.908;2023-05-01T06:28:52;19.40;38.40
9446;DHT22;4761;49.490;10.908;2023-05-01T06:31:19;19.40;38.40
9446;DHT22;4761;49.490;10.908;2023-05-01T06:33:44;19.50;38.40
9446;DHT22;4761;49.490;10.908;2023-05-01T06:36:10;19.50;38.90
9446;DHT22;4761;49.490;10.908;2023-05-01T06:38:35;19.50;38.60
9446;DHT22;4761;49.490;10.908;2023-05-01T06:41:01;19.60;38.40
9446;DHT22;4761;49.490;10.908;2023-05-01T06:43:28;19.60;38.30
9446;DHT22;4761;49.490;10.908;2023-05-01T06:45:55;19.60;38.30
9446;DHT22;4761;49.490;10.908;2023-05-01T06:48:21;19.60;38.20
9446;DHT22;4761;49.490;10.908;2023-05-01T06:50:47;19.70;38.30
9446;DHT22;4761;49.490;10.908;2023-05-01T06:53:12;19.70;38.40
9446;DHT22;4761;49.490;10.908;2023-05-01T06:55:38;19.70;38.40
9446;DHT22;4761;49.490;10.908;2023-05-01T06:58:03;19.70;38.40
9446;DHT22;4761;49.490;10.908;2023-05-01T07:00:31;19.70;38.40
9446;DHT22;4761;49.490;10.908;2023-05-01T07:02:56;19.70;38.40
9446;DHT22;4761;49.490;10.908;2023-05-01T07:05:22;19.70;38.50
9446;DHT22;4761;49.490;10.908;2023-05-01T07:07:47;19.70;38.80
9446;DHT22;4761;49.490;10.908;2023-05-01T07:10:14;19.80;38.70
9446;DHT22;4761;49.490;10.908;2023-05-01T07:12:39;19.80;39.00
9446;DHT22;4761;49.490;10.908;2023-05-01T07:15:06;19.80;38.90
9446;DHT22;4761;49.490;10.908;2023-05-01T07:17:31;19.80;38.80
9446;DHT22;4761;49.490;10.908;2023-05-01T07:19:57;19.80;38.70
9446;DHT22;4761;49.490;10.908;2023-05-01T07:22:23;19.80;38.70
9446;DHT22;4761;49.490;10.908;2023-05-01T07:24:48;19.80;38.40
9446;DHT22;4761;49.490;10.908;2023-05-01T07:27:14;19.80;38.70
9446;DHT22;4761;49.490;10.908;2023-05-01T07:29:39;19.80;38.80
9446;DHT22;4761;49.490;10.908;2023-05-01T07:32:05;19.80;38.80
9446;DHT22;4761;49.490;10.908;2023-05-01T07:34:31;19.80;38.90
9446;DHT22;4761;49.490;10.908;2023-05-01T07:36:57;19.90;38.80
9446;DHT22;4761;49.490;10.908;2023-05-01T07:39:23;19.80;38.80
9446;DHT22;4761;49.490;10.908;2023-05-01T07:41:48;19.80;38.90
9446;DHT22;4761;49.490;10.908;2023-05-01T07:44:14;19.90;39.00
9446;DHT22;4761;49.490;10.908;2023-05-01T07:46:39;19.90;38.90
9446;DHT22;4761;49.490;10.908;2023-05-01T07:49:05;19.90;39.20
9446;DHT22;4761;49.490;10.908;2023-05-01T07:51:30;19.90;39.20
9446;DHT22;4761;49.490;10.908;2023-05-01T07:53:56;19.90;39.30
9446;DHT22;4761;49.490;10.908;2023-05-01T07:56:23;19.90;39.20
9446;DHT22;4761;49.490;10.908;2023-05-01T07:58:48;19.90;39.20
9446;DHT22;4761;49.490;10.908;2023-05-01T08:01:14;19.90;39.50
9446;DHT22;4761;49.490;10.908;2023-05-01T08:03:39;20.10;43.60
9446;DHT22;4761;49.490;10.908;2023-05-01T08:06:05;20.10;43.90
9446;DHT22;4761;49.490;10.908;2023-05-01T08:08:31;20.10;44.00
9446;DHT22;4761;49.490;10.908;2023-05-01T08:10:56;20.00;44.40
9446;DHT22;4761;49.490;10.908;2023-05-01T08:13:22;19.90;44.70
9446;DHT22;4761;49.490;10.908;2023-05-01T08:15:48;19.80;45.00
9446;DHT22;4761;49.490;10.908;2023-05-01T08:18:14;19.70;45.20
9446;DHT22;4761;49.490;10.908;2023-05-01T08:20:48;19.60;45.40
9446;DHT22;4761;49.490;10.908;2023-05-01T08:23:15;19.50;42.60
9446;DHT22;4761;49.490;10.908;2023-05-01T08:25:40;19.40;41.70
9446;DHT22;4761;49.490;10.908;2023-05-01T08:28:06;19.30;41.60
9446;DHT22;4761;49.490;10.908;2023-05-01T08:30:32;19.30;41.70
9446;DHT22;4761;49.490;10.908;2023-05-01T08:32:57;19.30;41.80
9446;DHT22;4761;49.490;10.908;2023-05-01T08:35:23;19.40;41.70
9446;DHT22;4761;49.490;10.908;2023-05-01T08:37:48;19.40;41.20
9446;DHT22;4761;49.490;10.908;2023-05-01T08:40:14;19.50;40.80
9446;DHT22;4761;49.490;10.908;2023-05-01T08:42:40;19.50;40.30
9446;DHT22;4761;49.490;10.908;2023-05-01T08:45:09;19.50;40.80
9446;DHT22;4761;49.490;10.908;2023-05-01T08:47:36;19.50;40.80
9446;DHT22;4761;49.490;10.908;2023-05-01T08:50:03;19.60;41.20
9446;DHT22;4761;49.490;10.908;2023-05-01T08:52:33;19.60;41.00
9446;DHT22;4761;49.490;10.908;2023-05-01T08:54:59;19.70;41.40
9446;DHT22;4761;49.490;10.908;2023-05-01T08:57:26;19.70;41.10
9446;DHT22;4761;49.490;10.908;2023-05-01T08:59:52;19.70;40.90
9446;DHT22;4761;49.490;10.908;2023-05-01T09:02:22;19.80;40.90
9446;DHT22;4761;49.490;10.908;2023-05-01T09:04:50;19.80;40.70
9446;DHT22;4761;49.490;10.908;2023-05-01T09:07:15;19.80;40.80
9446;DHT22;4761;49.490;10.908;2023-05-01T09:09:42;19.80;40.50
9446;DHT22;4761;49.490;10.908;2023-05-01T09:12:20;19.80;40.60
9446;DHT22;4761;49.490;10.908;2023-05-01T09:14:46;19.80;40.60
9446;DHT22;4761;49.490;10.908;2023-05-01T09:17:12;19.80;40.70
9446;DHT22;4761;49.490;10.908;2023-05-01T09:19:39;19.90;40.30
9446;DHT22;4761;49.490;10.908;2023-05-01T09:22:06;19.90;40.70
9446;DHT22;4761;49.490;10.908;2023-05-01T09:24:31;19.90;40.70
9446;DHT22;4761;49.490;10.908;2023-05-01T09:26:58;19.90;40.70
9446;DHT22;4761;49.490;10.908;2023-05-01T09:29:43;19.90;40.40
9446;DHT22;4761;49.490;10.908;2023-05-01T09:32:17;20.00;40.70
9446;DHT22;4761;49.490;10.908;2023-05-01T09:34:48;19.90;40.40
9446;DHT22;4761;49.490;10.908;2023-05-01T09:40:04;19.90;40.30
9446;DHT22;4761;49.490;10.908;2023-05-01T09:42:31;20.00;40.20
9446;DHT22;4761;49.490;10.908;2023-05-01T09:45:02;19.90;40.20
9446;DHT22;4761;49.490;10.908;2023-05-01T09:47:28;20.00;40.20
9446;DHT22;4761;49.490;10.908;2023-05-01T09:49:55;20.00;40.80
9446;DHT22;4761;49.490;10.908;2023-05-01T09:52:29;20.00;40.20
9446;DHT22;4761;49.490;10.908;2023-05-01T09:55:14;20.00;40.30
9446;DHT22;4761;49.490;10.908;2023-05-01T09:57:40;20.00;40.30
9446;DHT22;4761;49.490;10.908;2023-05-01T10:00:08;20.10;40.70
9446;DHT22;4761;49.490;10.908;2023-05-01T10:02:34;20.10;40.40
9446;DHT22;4761;49.490;10.908;2023-05-01T10:05:01;20.10;40.20
9446;DHT22;4761;49.490;10.908;2023-05-01T10:07:26;20.10;40.50
9446;DHT22;4761;49.490;10.908;2023-05-01T10:09:53;20.20;40.50
9446;DHT22;4761;49.490;10.908;2023-05-01T10:12:24;20.10;40.50
9446;DHT22;4761;49.490;10.908;2023-05-01T10:14:54;20.20;40.50
9446;DHT22;4761;49.490;10.908;2023-05-01T10:17:20;20.20;40.30
9446;DHT22;4761;49.490;10.908;2023-05-01T10:19:47;20.20;40.00
9446;DHT22;4761;49.490;10.908;2023-05-01T10:22:13;20.20;39.70
9446;DHT22;4761;49.490;10.908;2023-05-01T10:24:41;20.20;39.50
9446;DHT22;4761;49.490;10.908;2023-05-01T10:27:07;20.20;39.80
9446;DHT22;4761;49.490;10.908;2023-05-01T10:29:34;20.20;39.80
9446;DHT22;4761;49.490;10.908;2023-05-01T10:32:02;20.20;39.70
9446;DHT22;4761;49.490;10.908;2023-05-01T10:34:30;20.20;40.00
9446;DHT22;4761;49.490;10.908;2023-05-01T10:37:01;20.30;40.20
9446;DHT22;4761;49.490;10.908;2023-05-01T10:39:33;20.30;40.50
9446;DHT22;4761;49.490;10.908;2023-05-01T10:42:09;20.30;40.70
9446;DHT22;4761;49.490;10.908;2023-05-01T10:44:38;20.30;41.10
9446;DHT22;4761;49.490;10.908;2023-05-01T10:50:08;20.30;42.00
9446;DHT22;4761;49.490;10.908;2023-05-01T10:55:38;20.30;42.50
9446;DHT22;4761;49.490;10.908;2023-05-01T10:58:04;20.30;42.70
9446;DHT22;4761;49.490;10.908;2023-05-01T11:00:30;20.30;42.80
9446;DHT22;4761;49.490;10.908;2023-05-01T11:08:33;20.40;46.20
9446;DHT22;4761;49.490;10.908;2023-05-01T11:13:59;20.20;47.10
9446;DHT22;4761;49.490;10.908;2023-05-01T11:21:46;19.90;48.50
9446;DHT22;4761;49.490;10.908;2023-05-01T11:24:12;19.70;49.50
9446;DHT22;4761;49.490;10.908;2023-05-01T11:26:39;19.60;50.00
9446;DHT22;4761;49.490;10.908;2023-05-01T11:29:07;19.60;50.40
9446;DHT22;4761;49.490;10.908;2023-05-01T11:31:33;19.50;50.50
9446;DHT22;4761;49.490;10.908;2023-05-01T11:33:59;19.60;50.50
9446;DHT22;4761;49.490;10.908;2023-05-01T11:36:25;19.60;50.50
9446;DHT22;4761;49.490;10.908;2023-05-01T11:38:53;19.60;50.40
9446;DHT22;4761;49.490;10.908;2023-05-01T11:41:21;19.70;50.30
9446;DHT22;4761;49.490;10.908;2023-05-01T11:43:50;19.70;50.20
9446;DHT22;4761;49.490;10.908;2023-05-01T11:48:49;19.80;49.90
9446;DHT22;4761;49.490;10.908;2023-05-01T11:51:15;19.80;49.80
9446;DHT22;4761;49.490;10.908;2023-05-01T11:53:41;19.80;49.60
9446;DHT22;4761;49.490;10.908;2023-05-01T11:56:19;19.80;49.60
9446;DHT22;4761;49.490;10.908;2023-05-01T11:58:46;19.90;49.70
9446;DHT22;4761;49.490;10.908;2023-05-01T12:01:11;19.90;49.60
9446;DHT22;4761;49.490;10.908;2023-05-01T12:03:41;19.90;49.50
9446;DHT22;4761;49.490;10.908;2023-05-01T12:06:09;20.00;49.60
9446;DHT22;4761;49.490;10.908;2023-05-01T12:08:35;20.00;49.40
9446;DHT22;4761;49.490;10.908;2023-05-01T12:11:01;20.00;49.40
9446;DHT22;4761;49.490;10.908;2023-05-01T12:13:27;20.00;49.40
9446;DHT22;4761;49.490;10.908;2023-05-01T12:15:54;20.00;49.30
9446;DHT22;4761;49.490;10.908;2023-05-01T12:18:20;20.00;49.30
9446;DHT22;4761;49.490;10.908;2023-05-01T12:20:48;20.00;49.30
9446;DHT22;4761;49.490;10.908;2023-05-01T12:23:16;20.10;49.40
9446;DHT22;4761;49.490;10.908;2023-05-01T12:25:43;20.10;49.30
9446;DHT22;4761;49.490;10.908;2023-05-01T12:28:13;20.10;49.40
9446;DHT22;4761;49.490;10.908;2023-05-01T12:30:40;20.10;49.30
9446;DHT22;4761;49.490;10.908;2023-05-01T12:33:11;20.10;49.20
9446;DHT22;4761;49.490;10.908;2023-05-01T12:35:38;20.20;49.40
9446;DHT22;4761;49.490;10.908;2023-05-01T12:40:58;20.10;49.20
9446;DHT22;4761;49.490;10.908;2023-05-01T12:43:32;20.10;49.30
9446;DHT22;4761;49.490;10.908;2023-05-01T12:45:58;20.10;49.40
9446;DHT22;4761;49.490;10.908;2023-05-01T12:48:24;20.10;49.30
9446;DHT22;4761;49.490;10.908;2023-05-01T12:50:50;20.20;49.30
9446;DHT22;4761;49.490;10.908;2023-05-01T12:53:23;20.20;49.30
9446;DHT22;4761;49.490;10.908;2023-05-01T12:55:51;20.20;49.30
9446;DHT22;4761;49.490;10.908;2023-05-01T12:58:17;20.20;49.20
9446;DHT22;4761;49.490;10.908;2023-05-01T13:03:10;20.30;49.10
9446;DHT22;4761;49.490;10.908;2023-05-01T13:05:35;20.40;49.00
9446;DHT22;4761;49.490;10.908;2023-05-01T13:08:02;20.40;48.90
9446;DHT22;4761;49.490;10.908;2023-05-01T13:10:29;20.40;48.80
9446;DHT22;4761;49.490;10.908;2023-05-01T13:12:55;20.50;48.90
9446;DHT22;4761;49.490;10.908;2023-05-01T13:15:21;20.50;48.90
9446;DHT22;4761;49.490;10.908;2023-05-01T13:17:47;20.60;48.80
9446;DHT22;4761;49.490;10.908;2023-05-01T13:20:12;20.60;48.60
9446;DHT22;4761;49.490;10.908;2023-05-01T13:22:40;20.70;48.60
9446;DHT22;4761;49.490;10.908;2023-05-01T13:25:16;20.70;48.40
9446;DHT22;4761;49.490;10.908;2023-05-01T13:27:50;20.80;48.40
9446;DHT22;4761;49.490;10.908;2023-05-01T13:30:29;20.80;48.30
9446;DHT22;4761;49.490;10.908;2023-05-01T13:32:55;20.80;48.40
9446;DHT22;4761;49.490;10.908;2023-05-01T13:35:24;20.80;48.40
9446;DHT22;4761;49.490;10.908;2023-05-01T13:37:51;20.90;48.40
9446;DHT22;4761;49.490;10.908;2023-05-01T13:40:18;20.90;48.30
9446;DHT22;4761;49.490;10.908;2023-05-01T13:42:44;20.90;48.20
9446;DHT22;4761;49.490;10.908;2023-05-01T13:45:11;21.00;48.20
9446;DHT22;4761;49.490;10.908;2023-05-01T13:47:39;21.00;48.10
9446;DHT22;4761;49.490;10.908;2023-05-01T13:50:09;21.00;48.10
9446;DHT22;4761;49.490;10.908;2023-05-01T13:52:41;21.10;48.10
9446;DHT22;4761;49.490;10.908;2023-05-01T13:55:09;21.00;48.10
9446;DHT22;4761;49.490;10.908;2023-05-01T13:57:36;21.00;48.10
9446;DHT22;4761;49.490;10.908;2023-05-01T14:00:04;21.00;48.10
9446;DHT22;4761;49.490;10.908;2023-05-01T14:02:32;21.00;48.10
9446;DHT22;4761;49.490;10.908;2023-05-01T14:04:57;21.10;50.50
9446;DHT22;4761;49.490;10.908;2023-05-01T14:07:23;21.10;50.50
9446;DHT22;4761;49.490;10.908;2023-05-01T14:09:56;20.90;51.10
9446;DHT22;4761;49.490;10.908;2023-05-01T14:12:25;20.80;51.00
9446;DHT22;4761;49.490;10.908;2023-05-01T14:14:52;20.70;51.40
9446;DHT22;4761;49.490;10.908;2023-05-01T14:17:17;20.60;51.40
9446;DHT22;4761;49.490;10.908;2023-05-01T14:19:43;20.50;51.50
9446;DHT22;4761;49.490;10.908;2023-05-01T14:22:09;20.50;51.70
9446;DHT22;4761;49.490;10.908;2023-05-01T14:24:36;20.40;51.80
9446;DHT22;4761;49.490;10.908;2023-05-01T14:27:05;20.40;51.90
9446;DHT22;4761;49.490;10.908;2023-05-01T14:29:31;20.30;51.90
9446;DHT22;4761;49.490;10.908;2023-05-01T14:32:01;20.30;52.00
9446;DHT22;4761;49.490;10.908;2023-05-01T14:34:28;20.30;52.00
9446;DHT22;4761;49.490;10.908;2023-05-01T14:36:54;20.20;52.10
9446;DHT22;4761;49.490;10.908;2023-05-01T14:39:20;20.20;52.20
9446;DHT22;4761;49.490;10.908;2023-05-01T14:41:46;20.20;52.30
9446;DHT22;4761;49.490;10.908;2023-05-01T14:44:15;20.10;52.30
9446;DHT22;4761;49.490;10.908;2023-05-01T14:46:44;20.10;52.40
9446;DHT22;4761;49.490;10.908;2023-05-01T14:49:20;20.00;52.40
9446;DHT22;4761;49.490;10.908;2023-05-01T14:51:46;20.00;52.40
9446;DHT22;4761;49.490;10.908;2023-05-01T14:54:12;20.00;52.50
9446;DHT22;4761;49.490;10.908;2023-05-01T14:56:38;20.00;52.50
9446;DHT22;4761;49.490;10.908;2023-05-01T14:59:04;20.00;53.30
9446;DHT22;4761;49.490;10.908;2023-05-01T15:01:29;20.00;52.50
9446;DHT22;4761;49.490;10.908;2023-05-01T15:03:55;19.90;52.50
9446;DHT22;4761;49.490;10.908;2023-05-01T15:06:21;19.90;52.50
9446;DHT22;4761;49.490;10.908;2023-05-01T15:08:48;19.90;52.60
9446;DHT22;4761;49.490;10.908;2023-05-01T15:11:14;19.90;52.60
9446;DHT22;4761;49.490;10.908;2023-05-01T15:13:39;19.90;52.60
9446;DHT22;4761;49.490;10.908;2023-05-01T15:16:06;19.90;52.60
9446;DHT22;4761;49.490;10.908;2023-05-01T15:18:32;19.80;52.40
9446;DHT22;4761;49.490;10.908;2023-05-01T15:20:59;19.80;52.30
9446;DHT22;4761;49.490;10.908;2023-05-01T15:23:25;19.80;52.30
9446;DHT22;4761;49.490;10.908;2023-05-01T15:25:51;19.80;52.40
9446;DHT22;4761;49.490;10.908;2023-05-01T15:28:17;19.80;52.50
9446;DHT22;4761;49.490;10.908;2023-05-01T15:30:46;19.80;52.40
9446;DHT22;4761;49.490;10.908;2023-05-01T15:33:12;19.80;52.40
9446;DHT22;4761;49.490;10.908;2023-05-01T15:35:38;19.80;52.50
9446;DHT22;4761;49.490;10.908;2023-05-01T15:38:04;19.70;52.40
9446;DHT22;4761;49.490;10.908;2023-05-01T15:40:29;19.80;52.50
9446;DHT22;4761;49.490;10.908;2023-05-01T15:42:56;19.80;52.50
9446;DHT22;4761;49.490;10.908;2023-05-01T15:45:21;19.70;52.40
9446;DHT22;4761;49.490;10.908;2023-05-01T15:47:47;19.70;52.40
9446;DHT22;4761;49.490;10.908;2023-05-01T15:50:12;19.80;52.50
9446;DHT22;4761;49.490;10.908;2023-05-01T15:52:38;19.80;52.50
9446;DHT22;4761;49.490;10.908;2023-05-01T15:55:05;19.80;53.10
9446;DHT22;4761;49.490;10.908;2023-05-01T15:57:32;19.70;52.40
9446;DHT22;4761;49.490;10.908;2023-05-01T15:59:57;19.70;52.40
9446;DHT22;4761;49.490;10.908;2023-05-01T16:02:23;19.70;52.50
9446;DHT22;4761;49.490;10.908;2023-05-01T16:04:51;19.70;52.50
9446;DHT22;4761;49.490;10.908;2023-05-01T16:07:17;19.70;52.50
9446;DHT22;4761;49.490;10.908;2023-05-01T16:09:42;19.70;52.50
9446;DHT22;4761;49.490;10.908;2023-05-01T16:12:08;19.70;52.50
9446;DHT22;4761;49.490;10.908;2023-05-01T16:14:40;19.70;52.50
9446;DHT22;4761;49.490;10.908;2023-05-01T16:17:06;19.70;52.40
9446;DHT22;4761;49.490;10.908;2023-05-01T16:19:32;19.70;52.40
9446;DHT22;4761;49.490;10.908;2023-05-01T16:22:01;19.70;52.30
9446;DHT22;4761;49.490;10.908;2023-05-01T16:24:27;19.70;52.30
9446;DHT22;4761;49.490;10.908;2023-05-01T16:26:55;19.70;52.30
9446;DHT22;4761;49.490;10.908;2023-05-01T16:29:21;19.60;52.20